Time,TemperatureF,DewpointF,PressureIn,WindDirection,WindDirectionDegrees,WindSpeedMPH,WindSpeedGustMPH,Humidity,HourlyPrecipIn,Conditions,Clouds,dailyrainin,SoftwareType,DateUTC
2013-07-25 00:01:00,74.2,70.7,29.80,NE,55,0.0,0.0,89,0.00,,,0.00,LWC V2.00 B2112,2013-07-25 04:01:00,
2013-07-25 00:06:00,74.0,70.5,29.80,NE,55,0.0,0.0,89,0.00,,,0.00,LWC V2.00 B2112,2013-07-25 04:06:00,
2013-07-25 00:11:00,74.0,70.5,29.81,NE,55,0.0,0.0,89,0.00,,,0.00,LWC V2.00 B2112,2013-07-25 04:11:00,
2013-07-25 00:16:00,74.0,70.5,29.81,NE,55,0.0,0.0,89,0.00,,,0.00,LWC V2.00 B2112,2013-07-25 04:16:00,
2013-07-25 00:21:00,74.0,70.5,29.81,NE,55,0.0,0.0,89,0.00,,,0.00,LWC V2.00 B2112,2013-07-25 04:21:00,
2013-07-25 00:26:00,73.9,70.8,29.80,NE,55,0.0,0.0,90,0.00,,,0.00,LWC V2.00 B2112,2013-07-25 04:26:00,
2013-07-25 00:31:00,73.9,70.8,29.80,NE,55,0.0,0.0,90,0.00,,,0.00,LWC V2.00 B2112,2013-07-25 04:31:00,
2013-07-25 00:36:00,73.9,70.8,29.80,NE,55,0.0,0.0,90,0.00,,,0.00,LWC V2.00 B2112,2013-07-25 04:36:00,
2013-07-25 00:41:00,73.7,70.6,29.80,NE,55,0.0,0.0,90,0.00,,,0.00,LWC V2.00 B2112,2013-07-25 04:41:00,
2013-07-25 00:46:00,73.5,70.7,29.80,NE,55,0.0,0.0,91,0.00,,,0.00,LWC V2.00 B2112,2013-07-25 04:46:00,
2013-07-25 00:51:00,73.5,70.7,29.80,NE,55,0.0,0.0,91,0.00,,,0.00,LWC V2.00 B2112,2013-07-25 04:51:00,
2013-07-25 00:56:00,73.5,70.7,29.80,NE,55,0.0,0.0,91,0.00,,,0.00,LWC V2.00 B2112,2013-07-25 04:56:00,
2013-07-25 01:01:00,73.3,70.5,29.80,NE,55,0.0,0.0,91,0.00,,,0.00,LWC V2.00 B2112,2013-07-25 05:01:00,
2013-07-25 01:06:00,73.5,70.7,29.80,NE,55,0.0,0.0,91,0.00,,,0.00,LWC V2.00 B2112,2013-07-25 05:06:00,
2013-07-25 01:11:00,73.5,70.7,29.80,NE,55,0.0,0.0,91,0.00,,,0.00,LWC V2.00 B2112,2013-07-25 05:11:00,
2013-07-25 01:16:00,73.5,70.7,29.80,NE,55,0.0,0.0,91,0.00,,,0.00,LWC V2.00 B2112,2013-07-25 05:16:00,
2013-07-25 01:21:00,73.7,70.9,29.80,NE,55,0.0,0.0,91,0.00,,,0.00,LWC V2.00 B2112,2013-07-25 05:21:00,
2013-07-25 01:26:00,73.7,70.9,29.80,NE,55,0.0,0.0,91,0.00,,,0.00,LWC V2.00 B2112,2013-07-25 05:26:00,
2013-07-25 01:31:00,73.9,71.1,29.80,NE,55,0.0,0.0,91,0.00,,,0.00,LWC V2.00 B2112,2013-07-25 05:31:00,
2013-07-25 01:36:00,73.7,70.6,29.80,NE,55,0.0,0.0,90,0.00,,,0.00,LWC V2.00 B2112,2013-07-25 05:36:00,
2013-07-25 01:41:00,73.7,70.6,29.80,NE,55,0.0,0.0,90,0.00,,,0.00,LWC V2.00 B2112,2013-07-25 05:41:00,
2013-07-25 01:46:00,73.7,70.2,29.80,NE,55,0.0,0.0,89,0.00,,,0.00,LWC V2.00 B2112,2013-07-25 05:46:00,
2013-07-25 01:51:00,73.7,70.2,29.80,NE,55,0.0,0.0,89,0.00,,,0.00,LWC V2.00 B2112,2013-07-25 05:51:00,
2013-07-25 01:56:00,73.7,70.2,29.80,NE,55,0.0,0.0,89,0.00,,,0.00,LWC V2.00 B2112,2013-07-25 05:56:00,
2013-07-25 02:01:00,73.7,70.2,29.80,NE,55,0.0,0.0,89,0.00,,,0.00,LWC V2.00 B2112,2013-07-25 06:01:00,
2013-07-25 02:06:00,73.9,70.8,29.80,NE,55,0.0,0.0,90,0.00,,,0.00,LWC V2.00 B2112,2013-07-25 06:06:00,
2013-07-25 02:11:00,73.9,70.8,29.80,NE,55,0.0,0.0,90,0.00,,,0.00,LWC V2.00 B2112,2013-07-25 06:11:00,
2013-07-25 02:16:00,73.9,70.8,29.80,NE,55,0.0,0.0,90,0.00,,,0.00,LWC V2.00 B2112,2013-07-25 06:16:00,
2013-07-25 02:21:00,73.9,70.8,29.80,NE,55,0.0,0.0,90,0.00,,,0.00,LWC V2.00 B2112,2013-07-25 06:21:00,
2013-07-25 02:26:00,73.9,70.8,29.80,NE,55,0.0,0.0,90,0.00,,,0.00,LWC V2.00 B2112,2013-07-25 06:26:00,
2013-07-25 02:31:00,73.7,70.6,29.80,NE,55,0.0,0.0,90,0.00,,,0.00,LWC V2.00 B2112,2013-07-25 06:31:00,
2013-07-25 02:36:00,73.7,70.6,29.80,NE,55,0.0,0.0,90,0.00,,,0.00,LWC V2.00 B2112,2013-07-25 06:36:00,
2013-07-25 02:41:00,73.7,70.6,29.80,NE,55,0.0,0.0,90,0.00,,,0.00,LWC V2.00 B2112,2013-07-25 06:41:00,
2013-07-25 02:46:00,73.7,70.6,29.80,NE,55,0.0,0.0,90,0.00,,,0.00,LWC V2.00 B2112,2013-07-25 06:46:00,
2013-07-25 02:51:00,73.5,70.0,29.80,NE,55,0.0,0.0,89,0.00,,,0.00,LWC V2.00 B2112,2013-07-25 06:51:00,
2013-07-25 02:56:00,73.5,70.0,29.79,NE,55,0.0,0.0,89,0.00,,,0.00,LWC V2.00 B2112,2013-07-25 06:56:00,
2013-07-25 03:01:00,73.5,70.0,29.79,NE,55,0.0,0.0,89,0.00,,,0.00,LWC V2.00 B2112,2013-07-25 07:01:00,
2013-07-25 03:06:00,73.5,70.0,29.79,NE,55,0.0,0.0,89,0.00,,,0.00,LWC V2.00 B2112,2013-07-25 07:06:00,
2013-07-25 03:11:00,73.5,70.0,29.79,NE,55,0.0,0.0,89,0.00,,,0.00,LWC V2.00 B2112,2013-07-25 07:11:00,
2013-07-25 03:16:00,73.5,70.0,29.79,NE,55,0.0,0.0,89,0.00,,,0.00,LWC V2.00 B2112,2013-07-25 07:16:00,
2013-07-25 03:21:00,73.5,70.0,29.79,NE,55,0.0,0.0,89,0.00,,,0.00,LWC V2.00 B2112,2013-07-25 07:21:00,
2013-07-25 03:26:00,73.3,69.9,29.78,NE,55,0.0,0.0,89,0.00,,,0.00,LWC V2.00 B2112,2013-07-25 07:26:00,
2013-07-25 03:31:00,73.3,69.5,29.78,NE,55,0.0,0.0,88,0.00,,,0.00,LWC V2.00 B2112,2013-07-25 07:31:00,
2013-07-25 03:36:00,73.3,69.5,29.78,NE,55,0.0,1.0,88,0.00,,,0.00,LWC V2.00 B2112,2013-07-25 07:36:00,
2013-07-25 03:41:00,73.3,69.5,29.78,NE,55,0.0,0.0,88,0.00,,,0.00,LWC V2.00 B2112,2013-07-25 07:41:00,
2013-07-25 03:46:00,73.3,69.5,29.78,NE,55,0.0,0.0,88,0.00,,,0.00,LWC V2.00 B2112,2013-07-25 07:46:00,
2013-07-25 03:51:00,73.3,69.5,29.78,NE,55,0.0,0.0,88,0.00,,,0.00,LWC V2.00 B2112,2013-07-25 07:51:00,
2013-07-25 03:56:00,73.3,69.5,29.77,NE,55,0.0,0.0,88,0.00,,,0.00,LWC V2.00 B2112,2013-07-25 07:56:00,
2013-07-25 04:01:00,73.2,69.4,29.77,NE,55,0.0,0.0,88,0.00,,,0.00,LWC V2.00 B2112,2013-07-25 08:01:00,
2013-07-25 04:06:00,73.2,69.4,29.77,NNE,15,0.0,0.0,88,0.00,,,0.00,LWC V2.00 B2112,2013-07-25 08:06:00,
2013-07-25 04:11:00,73.0,69.2,29.77,NNE,15,0.0,0.0,88,0.00,,,0.00,LWC V2.00 B2112,2013-07-25 08:11:00,
2013-07-25 04:16:00,72.8,68.7,29.77,NNE,15,0.0,0.0,87,0.00,,,0.00,LWC V2.00 B2112,2013-07-25 08:16:00,
2013-07-25 04:21:00,72.7,68.9,29.77,NNE,15,0.0,0.0,88,0.00,,,0.00,LWC V2.00 B2112,2013-07-25 08:21:00,
2013-07-25 04:26:00,72.5,68.7,29.78,NNE,15,0.0,0.0,88,0.00,,,0.00,LWC V2.00 B2112,2013-07-25 08:26:00,
2013-07-25 04:31:00,72.3,68.9,29.78,NNE,15,0.0,0.0,89,0.00,,,0.00,LWC V2.00 B2112,2013-07-25 08:31:00,
2013-07-25 04:36:00,72.1,69.0,29.78,NNE,15,0.0,0.0,90,0.00,,,0.00,LWC V2.00 B2112,2013-07-25 08:36:00,
2013-07-25 04:41:00,72.0,69.2,29.78,NNE,15,0.0,0.0,91,0.00,,,0.01,LWC V2.00 B2112,2013-07-25 08:41:00,
2013-07-25 04:46:00,72.0,69.5,29.78,NNE,15,0.0,0.0,92,0.00,,,0.01,LWC V2.00 B2112,2013-07-25 08:46:00,
2013-07-25 04:51:00,71.6,68.8,29.78,NNE,15,0.0,0.0,91,0.00,,,0.01,LWC V2.00 B2112,2013-07-25 08:51:00,
2013-07-25 04:56:00,71.5,69.0,29.79,NNW,339,0.0,1.0,92,0.00,,,0.01,LWC V2.00 B2112,2013-07-25 08:56:00,
2013-07-25 05:01:00,71.5,69.0,29.79,NNW,339,0.0,0.0,92,0.00,,,0.01,LWC V2.00 B2112,2013-07-25 09:01:00,
2013-07-25 05:06:00,71.3,68.8,29.79,NNW,339,0.0,0.0,92,0.00,,,0.01,LWC V2.00 B2112,2013-07-25 09:06:00,
2013-07-25 05:11:00,71.3,69.2,29.80,NNW,339,0.0,0.0,93,0.00,,,0.01,LWC V2.00 B2112,2013-07-25 09:11:00,
2013-07-25 05:16:00,71.1,69.0,29.80,NNW,339,0.0,0.0,93,0.00,,,0.01,LWC V2.00 B2112,2013-07-25 09:16:00,
2013-07-25 05:21:00,71.1,69.3,29.80,NNW,338,0.0,0.0,94,0.00,,,0.02,LWC V2.00 B2112,2013-07-25 09:21:00,
2013-07-25 05:26:00,71.1,69.3,29.79,NNW,339,0.0,0.0,94,0.00,,,0.02,LWC V2.00 B2112,2013-07-25 09:26:00,
2013-07-25 05:31:00,70.9,69.1,29.79,NNW,338,0.0,0.0,94,0.00,,,0.02,LWC V2.00 B2112,2013-07-25 09:31:00,
2013-07-25 05:36:00,70.9,69.4,29.79,ENE,66,0.0,1.0,95,0.00,,,0.02,LWC V2.00 B2112,2013-07-25 09:36:00,
2013-07-25 05:41:00,70.9,69.4,29.79,ENE,66,0.0,0.0,95,0.00,,,0.02,LWC V2.00 B2112,2013-07-25 09:41:00,
2013-07-25 05:46:00,71.1,69.9,29.79,ENE,66,0.0,0.0,96,0.00,,,0.02,LWC V2.00 B2112,2013-07-25 09:46:00,
2013-07-25 05:51:00,70.9,69.7,29.79,ENE,66,0.0,0.0,96,0.00,,,0.02,LWC V2.00 B2112,2013-07-25 09:51:00,
2013-07-25 05:56:00,70.9,69.7,29.80,ENE,66,0.0,0.0,96,0.00,,,0.02,LWC V2.00 B2112,2013-07-25 09:56:00,
2013-07-25 06:01:00,71.1,69.9,29.80,ENE,66,0.0,0.0,96,0.00,,,0.02,LWC V2.00 B2112,2013-07-25 10:01:00,
2013-07-25 06:06:00,71.1,69.9,29.80,ENE,66,0.0,0.0,96,0.00,,,0.02,LWC V2.00 B2112,2013-07-25 10:06:00,
2013-07-25 06:11:00,70.9,69.7,29.80,ENE,66,0.0,0.0,96,0.00,,,0.02,LWC V2.00 B2112,2013-07-25 10:11:00,
2013-07-25 06:16:00,70.9,69.7,29.80,ENE,59,0.0,0.0,96,0.00,,,0.02,LWC V2.00 B2112,2013-07-25 10:16:00,
2013-07-25 06:21:00,70.8,69.6,29.80,ENE,59,0.0,0.0,96,0.00,,,0.02,LWC V2.00 B2112,2013-07-25 10:21:00,
2013-07-25 06:26:00,70.8,69.6,29.81,ENE,59,0.0,0.0,96,0.00,,,0.02,LWC V2.00 B2112,2013-07-25 10:26:00,
2013-07-25 06:31:00,70.6,69.4,29.81,ENE,59,0.0,0.0,96,0.00,,,0.02,LWC V2.00 B2112,2013-07-25 10:31:00,
2013-07-25 06:36:00,70.6,69.4,29.81,ENE,59,0.0,0.0,96,0.00,,,0.02,LWC V2.00 B2112,2013-07-25 10:36:00,
2013-07-25 06:41:00,70.4,69.2,29.81,ENE,59,0.0,0.0,96,0.00,,,0.02,LWC V2.00 B2112,2013-07-25 10:41:00,
2013-07-25 06:46:00,70.3,69.1,29.81,ENE,59,0.0,0.0,96,0.00,,,0.02,LWC V2.00 B2112,2013-07-25 10:46:00,
2013-07-25 06:51:00,70.3,69.1,29.81,ENE,59,0.0,0.0,96,0.00,,,0.02,LWC V2.00 B2112,2013-07-25 10:51:00,
2013-07-25 06:56:00,70.1,68.9,29.82,ENE,59,0.0,0.0,96,0.00,,,0.02,LWC V2.00 B2112,2013-07-25 10:56:00,
2013-07-25 07:01:00,70.1,68.9,29.82,ENE,59,0.0,0.0,96,0.00,,,0.02,LWC V2.00 B2112,2013-07-25 11:01:00,
2013-07-25 07:06:00,70.1,68.9,29.82,ENE,59,0.0,0.0,96,0.00,,,0.02,LWC V2.00 B2112,2013-07-25 11:06:00,
2013-07-25 07:11:00,70.1,68.9,29.81,ENE,59,0.0,0.0,96,0.00,,,0.02,LWC V2.00 B2112,2013-07-25 11:11:00,
2013-07-25 07:16:00,69.9,68.7,29.81,ENE,59,0.0,0.0,96,0.00,,,0.02,LWC V2.00 B2112,2013-07-25 11:16:00,
2013-07-25 07:21:00,70.1,68.9,29.81,ENE,59,0.0,0.0,96,0.00,,,0.02,LWC V2.00 B2112,2013-07-25 11:21:00,
2013-07-25 07:26:00,70.1,68.9,29.81,ENE,59,0.0,0.0,96,0.00,,,0.02,LWC V2.00 B2112,2013-07-25 11:26:00,
2013-07-25 07:31:00,70.1,68.9,29.81,ENE,59,0.0,1.0,96,0.00,,,0.02,LWC V2.00 B2112,2013-07-25 11:31:00,
2013-07-25 07:36:00,69.9,68.7,29.81,ENE,59,0.0,1.0,96,0.00,,,0.02,LWC V2.00 B2112,2013-07-25 11:36:00,
2013-07-25 07:41:00,69.8,68.6,29.83,ENE,59,0.0,0.0,96,0.00,,,0.02,LWC V2.00 B2112,2013-07-25 11:41:00,
2013-07-25 07:46:00,69.8,68.6,29.83,ENE,59,0.0,0.0,96,0.00,,,0.02,LWC V2.00 B2112,2013-07-25 11:46:00,
2013-07-25 07:51:00,69.8,68.6,29.83,ENE,59,0.0,0.0,96,0.00,,,0.02,LWC V2.00 B2112,2013-07-25 11:51:00,
2013-07-25 07:56:00,69.8,68.6,29.84,ENE,59,0.0,0.0,96,0.00,,,0.02,LWC V2.00 B2112,2013-07-25 11:56:00,
2013-07-25 08:01:00,69.8,68.6,29.84,ENE,59,0.0,0.0,96,0.00,,,0.02,LWC V2.00 B2112,2013-07-25 12:01:00,
2013-07-25 08:06:00,69.8,68.6,29.84,ENE,59,0.0,0.0,96,0.00,,,0.02,LWC V2.00 B2112,2013-07-25 12:06:00,
2013-07-25 08:11:00,69.8,68.6,29.84,ENE,59,0.0,0.0,96,0.00,,,0.02,LWC V2.00 B2112,2013-07-25 12:11:00,
2013-07-25 08:16:00,69.8,68.3,29.84,ENE,59,0.0,0.0,95,0.00,,,0.02,LWC V2.00 B2112,2013-07-25 12:16:00,
2013-07-25 08:21:00,69.6,68.1,29.84,ENE,59,0.0,0.0,95,0.00,,,0.02,LWC V2.00 B2112,2013-07-25 12:21:00,
2013-07-25 08:26:00,69.6,67.8,29.84,ENE,59,0.0,0.0,94,0.00,,,0.00,LWC V2.00 B2112,2013-07-25 12:26:00,
2013-07-25 08:31:00,69.6,67.8,29.84,ENE,59,0.0,0.0,94,0.00,,,0.00,LWC V2.00 B2112,2013-07-25 12:31:00,
2013-07-25 08:36:00,69.4,67.6,29.84,ENE,59,0.0,0.0,94,0.00,,,0.00,LWC V2.00 B2112,2013-07-25 12:36:00,
2013-07-25 08:41:00,69.6,67.8,29.85,ENE,59,0.0,0.0,94,0.00,,,0.00,LWC V2.00 B2112,2013-07-25 12:41:00,
2013-07-25 08:46:00,69.6,67.8,29.85,ENE,59,0.0,0.0,94,0.00,,,0.00,LWC V2.00 B2112,2013-07-25 12:46:00,
2013-07-25 08:51:00,69.6,67.8,29.85,ENE,57,0.0,0.0,94,0.00,,,0.00,LWC V2.00 B2112,2013-07-25 12:51:00,
2013-07-25 08:56:00,69.8,67.7,29.85,ENE,57,0.0,0.0,93,0.00,,,0.00,LWC V2.00 B2112,2013-07-25 12:56:00,
2013-07-25 09:01:00,69.8,67.7,29.85,ENE,57,0.0,0.0,93,0.00,,,0.00,LWC V2.00 B2112,2013-07-25 13:01:00,
2013-07-25 09:06:00,69.9,68.1,29.85,ENE,57,0.0,0.0,94,0.00,,,0.00,LWC V2.00 B2112,2013-07-25 13:06:00,
2013-07-25 09:11:00,70.1,68.0,29.86,ENE,57,0.0,0.0,93,0.00,,,0.00,LWC V2.00 B2112,2013-07-25 13:11:00,
2013-07-25 09:16:00,70.1,68.0,29.86,ENE,57,0.0,0.0,93,0.00,,,0.00,LWC V2.00 B2112,2013-07-25 13:16:00,
2013-07-25 09:21:00,70.3,67.9,29.86,North,355,0.0,0.0,92,0.00,,,0.00,LWC V2.00 B2112,2013-07-25 13:21:00,
2013-07-25 09:26:00,70.4,67.6,29.86,North,355,0.0,0.0,91,0.00,,,0.00,LWC V2.00 B2112,2013-07-25 13:26:00,
2013-07-25 09:31:00,70.8,68.0,29.86,NNW,342,0.0,0.0,91,0.00,,,0.00,LWC V2.00 B2112,2013-07-25 13:31:00,
2013-07-25 09:36:00,70.9,67.8,29.86,NNW,342,0.0,0.0,90,0.00,,,0.00,LWC V2.00 B2112,2013-07-25 13:36:00,
2013-07-25 09:41:00,71.1,67.7,29.86,NNW,342,0.0,1.0,89,0.00,,,0.00,LWC V2.00 B2112,2013-07-25 13:41:00,
2013-07-25 09:46:00,71.1,67.4,29.86,NNW,342,0.0,1.0,88,0.00,,,0.00,LWC V2.00 B2112,2013-07-25 13:46:00,
2013-07-25 09:51:00,71.3,67.2,29.86,NNW,342,0.0,0.0,87,0.00,,,0.00,LWC V2.00 B2112,2013-07-25 13:51:00,
2013-07-25 09:56:00,71.3,67.2,29.86,NNW,342,0.0,0.0,87,0.00,,,0.00,LWC V2.00 B2112,2013-07-25 13:56:00,
2013-07-25 10:01:00,71.5,67.4,29.86,NNW,342,0.0,0.0,87,0.00,,,0.00,LWC V2.00 B2112,2013-07-25 14:01:00,
2013-07-25 10:06:00,71.5,67.1,29.86,NW,325,0.0,0.0,86,0.00,,,0.00,LWC V2.00 B2112,2013-07-25 14:06:00,
2013-07-25 10:11:00,71.6,67.5,29.87,NW,325,0.0,0.0,87,0.00,,,0.00,LWC V2.00 B2112,2013-07-25 14:11:00,
2013-07-25 10:16:00,71.6,67.5,29.87,NW,325,0.0,1.0,87,0.00,,,0.00,LWC V2.00 B2112,2013-07-25 14:16:00,
2013-07-25 10:21:00,71.8,67.7,29.87,WNW,302,0.0,0.0,87,0.00,,,0.00,LWC V2.00 B2112,2013-07-25 14:21:00,
2013-07-25 10:26:00,71.8,68.0,29.88,WNW,302,0.0,0.0,88,0.00,,,0.00,LWC V2.00 B2112,2013-07-25 14:26:00,
2013-07-25 10:31:00,71.8,68.0,29.88,WNW,302,0.0,0.0,88,0.00,,,0.00,LWC V2.00 B2112,2013-07-25 14:31:00,
2013-07-25 10:36:00,71.8,67.4,29.88,WNW,302,0.0,0.0,86,0.00,,,0.00,LWC V2.00 B2112,2013-07-25 14:36:00,
2013-07-25 10:41:00,71.6,67.2,29.88,WNW,302,0.0,0.0,86,0.00,,,0.00,LWC V2.00 B2112,2013-07-25 14:41:00,
2013-07-25 10:46:00,71.6,67.2,29.88,WNW,301,0.0,0.0,86,0.00,,,0.00,LWC V2.00 B2112,2013-07-25 14:46:00,
2013-07-25 10:51:00,71.6,67.2,29.88,WNW,300,0.0,0.0,86,0.00,,,0.00,LWC V2.00 B2112,2013-07-25 14:51:00,
2013-07-25 10:56:00,71.6,66.8,29.89,NE,38,0.0,0.0,85,0.00,,,0.00,LWC V2.00 B2112,2013-07-25 14:56:00,
2013-07-25 11:01:00,71.6,67.5,29.89,North,0,0.0,0.0,87,0.00,,,0.00,LWC V2.00 B2112,2013-07-25 15:01:00,
2013-07-25 11:06:00,71.6,66.8,29.89,NNW,333,0.0,1.0,85,0.00,,,0.00,LWC V2.00 B2112,2013-07-25 15:06:00,
2013-07-25 11:11:00,71.8,67.0,29.89,NW,322,0.0,0.0,85,0.00,,,0.00,LWC V2.00 B2112,2013-07-25 15:11:00,
2013-07-25 11:16:00,71.8,67.0,29.89,WNW,294,0.0,1.0,85,0.00,,,0.00,LWC V2.00 B2112,2013-07-25 15:16:00,
2013-07-25 11:21:00,72.0,66.9,29.89,WNW,289,0.0,1.0,84,0.00,,,0.00,LWC V2.00 B2112,2013-07-25 15:21:00,
2013-07-25 11:26:00,72.3,67.2,29.89,West,275,2.0,2.0,84,0.00,,,0.00,LWC V2.00 B2112,2013-07-25 15:26:00,
2013-07-25 11:31:00,72.7,67.6,29.89,West,275,0.0,0.0,84,0.00,,,0.00,LWC V2.00 B2112,2013-07-25 15:31:00,
2013-07-25 11:36:00,73.2,67.7,29.89,West,275,0.0,0.0,83,0.00,,,0.00,LWC V2.00 B2112,2013-07-25 15:36:00,
2013-07-25 11:41:00,73.2,67.0,29.89,WSW,245,0.0,1.0,81,0.00,,,0.00,LWC V2.00 B2112,2013-07-25 15:41:00,
2013-07-25 11:46:00,73.5,68.0,29.89,WSW,245,0.0,0.0,83,0.00,,,0.00,LWC V2.00 B2112,2013-07-25 15:46:00,
2013-07-25 11:51:00,73.5,67.7,29.89,WSW,245,0.0,0.0,82,0.00,,,0.00,LWC V2.00 B2112,2013-07-25 15:51:00,
2013-07-25 11:56:00,73.5,68.0,29.90,WSW,246,0.0,0.0,83,0.00,,,0.00,LWC V2.00 B2112,2013-07-25 15:56:00,
2013-07-25 12:01:00,73.5,67.7,29.90,West,261,0.0,0.0,82,0.00,,,0.00,LWC V2.00 B2112,2013-07-25 16:01:00,
2013-07-25 12:06:00,73.5,67.7,29.90,West,261,0.0,0.0,82,0.00,,,0.00,LWC V2.00 B2112,2013-07-25 16:06:00,
2013-07-25 12:11:00,73.7,68.6,29.90,NNW,333,0.0,0.0,84,0.00,,,0.00,LWC V2.00 B2112,2013-07-25 16:11:00,
2013-07-25 12:16:00,73.9,68.0,29.90,NNW,329,0.0,0.0,82,0.00,,,0.00,LWC V2.00 B2112,2013-07-25 16:16:00,
2013-07-25 12:21:00,73.9,67.7,29.90,West,273,0.0,0.0,81,0.00,,,0.00,LWC V2.00 B2112,2013-07-25 16:21:00,
2013-07-25 12:26:00,74.2,68.0,29.90,WNW,303,0.0,0.0,81,0.00,,,0.00,LWC V2.00 B2112,2013-07-25 16:26:00,
2013-07-25 12:31:00,74.6,68.7,29.90,WNW,303,0.0,0.0,82,0.00,,,0.00,LWC V2.00 B2112,2013-07-25 16:31:00,
2013-07-25 12:36:00,74.7,68.1,29.90,WNW,282,0.0,1.0,80,0.00,,,0.00,LWC V2.00 B2112,2013-07-25 16:36:00,
2013-07-25 12:41:00,74.7,68.1,29.90,WNW,286,0.0,0.0,80,0.00,,,0.00,LWC V2.00 B2112,2013-07-25 16:41:00,
2013-07-25 12:46:00,75.1,68.1,29.90,WNW,285,0.0,1.0,79,0.00,,,0.00,LWC V2.00 B2112,2013-07-25 16:46:00,
2013-07-25 12:51:00,75.4,68.4,29.90,WNW,285,0.0,2.0,79,0.00,,,0.00,LWC V2.00 B2112,2013-07-25 16:51:00,
2013-07-25 12:56:00,75.6,68.6,29.89,South,182,2.0,2.0,79,0.00,,,0.00,LWC V2.00 B2112,2013-07-25 16:56:00,
2013-07-25 13:01:00,75.8,67.7,29.89,WNW,283,0.0,2.0,76,0.00,,,0.00,LWC V2.00 B2112,2013-07-25 17:01:00,
2013-07-25 13:06:00,75.8,68.1,29.89,WNW,282,0.0,0.0,77,0.00,,,0.00,LWC V2.00 B2112,2013-07-25 17:06:00,
2013-07-25 13:11:00,76.0,69.0,29.89,WNW,282,0.0,0.0,79,0.00,,,0.00,LWC V2.00 B2112,2013-07-25 17:11:00,
2013-07-25 13:16:00,75.8,68.8,29.89,WNW,282,0.0,0.0,79,0.00,,,0.00,LWC V2.00 B2112,2013-07-25 17:16:00,
2013-07-25 13:21:00,75.8,69.2,29.89,WNW,282,0.0,0.0,80,0.00,,,0.00,LWC V2.00 B2112,2013-07-25 17:21:00,
2013-07-25 13:26:00,75.6,68.2,29.90,WNW,282,0.0,0.0,78,0.00,,,0.00,LWC V2.00 B2112,2013-07-25 17:26:00,
2013-07-25 13:31:00,75.4,68.8,29.90,WNW,282,0.0,0.0,80,0.00,,,0.00,LWC V2.00 B2112,2013-07-25 17:31:00,
2013-07-25 13:36:00,75.3,69.1,29.90,WNW,282,0.0,0.0,81,0.00,,,0.00,LWC V2.00 B2112,2013-07-25 17:36:00,
2013-07-25 13:41:00,75.3,69.8,29.90,WNW,282,0.0,0.0,83,0.00,,,0.00,LWC V2.00 B2112,2013-07-25 17:41:00,
2013-07-25 13:46:00,75.3,69.4,29.90,WNW,282,1.0,1.0,82,0.00,,,0.00,LWC V2.00 B2112,2013-07-25 17:46:00,
2013-07-25 13:51:00,75.1,68.5,29.90,WNW,282,0.0,0.0,80,0.00,,,0.00,LWC V2.00 B2112,2013-07-25 17:51:00,
2013-07-25 13:56:00,75.1,68.5,29.89,WNW,282,0.0,1.0,80,0.00,,,0.00,LWC V2.00 B2112,2013-07-25 17:56:00,
2013-07-25 14:01:00,75.1,68.5,29.89,WNW,282,0.0,0.0,80,0.00,,,0.00,LWC V2.00 B2112,2013-07-25 18:01:00,
2013-07-25 14:06:00,75.1,69.2,29.89,WNW,282,0.0,0.0,82,0.00,,,0.00,LWC V2.00 B2112,2013-07-25 18:06:00,
2013-07-25 14:11:00,74.9,68.3,29.89,WNW,282,0.0,0.0,80,0.00,,,0.00,LWC V2.00 B2112,2013-07-25 18:11:00,
2013-07-25 14:16:00,74.9,68.3,29.89,NNE,17,0.0,0.0,80,0.00,,,0.00,LWC V2.00 B2112,2013-07-25 18:16:00,
2013-07-25 14:21:00,74.7,68.8,29.89,NNE,17,0.0,0.0,82,0.00,,,0.00,LWC V2.00 B2112,2013-07-25 18:21:00,
2013-07-25 14:26:00,74.7,69.5,29.90,NNE,17,0.0,0.0,84,0.00,,,0.00,LWC V2.00 B2112,2013-07-25 18:26:00,
2013-07-25 14:31:00,75.6,69.0,29.90,West,261,0.0,0.0,80,0.00,,,0.00,LWC V2.00 B2112,2013-07-25 18:31:00,
2013-07-25 14:36:00,76.0,68.6,29.90,West,263,0.0,0.0,78,0.00,,,0.00,LWC V2.00 B2112,2013-07-25 18:36:00,
2013-07-25 14:41:00,76.1,69.1,29.89,West,263,0.0,1.0,79,0.00,,,0.00,LWC V2.00 B2112,2013-07-25 18:41:00,
2013-07-25 14:46:00,76.1,69.1,29.89,West,263,0.0,0.0,79,0.00,,,0.00,LWC V2.00 B2112,2013-07-25 18:46:00,
2013-07-25 14:51:00,76.1,69.5,29.89,West,263,0.0,0.0,80,0.00,,,0.00,LWC V2.00 B2112,2013-07-25 18:51:00,
2013-07-25 14:56:00,76.1,69.1,29.89,West,263,0.0,1.0,79,0.00,,,0.00,LWC V2.00 B2112,2013-07-25 18:56:00,
2013-07-25 15:01:00,76.0,67.9,29.89,West,263,0.0,0.0,76,0.00,,,0.00,LWC V2.00 B2112,2013-07-25 19:01:00,
2013-07-25 15:07:00,76.1,68.0,29.89,West,263,0.0,0.0,76,0.00,,,0.00,LWC V2.00 B2112,2013-07-25 19:07:00,
2013-07-25 15:12:00,76.5,68.4,29.89,West,263,0.0,0.0,76,0.00,,,0.00,LWC V2.00 B2112,2013-07-25 19:12:00,
2013-07-25 15:17:00,76.8,69.4,29.89,West,263,0.0,0.0,78,0.00,,,0.00,LWC V2.00 B2112,2013-07-25 19:17:00,
2013-07-25 15:22:00,77.0,69.2,29.89,West,263,0.0,0.0,77,0.00,,,0.00,LWC V2.00 B2112,2013-07-25 19:22:00,
2013-07-25 15:27:00,77.0,69.2,29.89,West,263,0.0,0.0,77,0.00,,,0.00,LWC V2.00 B2112,2013-07-25 19:27:00,
2013-07-25 15:32:00,76.8,69.0,29.89,West,263,0.0,0.0,77,0.00,,,0.00,LWC V2.00 B2112,2013-07-25 19:32:00,
2013-07-25 15:37:00,77.0,68.4,29.89,West,263,0.0,0.0,75,0.00,,,0.00,LWC V2.00 B2112,2013-07-25 19:37:00,
2013-07-25 15:42:00,77.2,68.3,29.89,West,263,0.0,0.0,74,0.00,,,0.00,LWC V2.00 B2112,2013-07-25 19:42:00,
2013-07-25 15:47:00,77.2,69.0,29.89,West,263,0.0,0.0,76,0.00,,,0.00,LWC V2.00 B2112,2013-07-25 19:47:00,
2013-07-25 15:52:00,77.0,69.6,29.89,West,263,0.0,0.0,78,0.00,,,0.00,LWC V2.00 B2112,2013-07-25 19:52:00,
2013-07-25 15:54:00,77.0,69.6,29.89,West,263,0.0,0.0,78,0.00,,,0.00,LWC V2.00 B2112,2013-07-25 19:54:00,
2013-07-25 15:59:00,76.7,70.0,29.89,West,263,0.0,0.0,80,0.00,,,0.00,LWC V2.00 B2112,2013-07-25 19:59:00,
2013-07-25 16:04:00,76.3,70.7,29.89,West,263,0.0,0.0,83,0.00,,,0.00,LWC V2.00 B2112,2013-07-25 20:04:00,
2013-07-25 16:09:00,76.7,68.2,29.89,West,263,0.0,0.0,75,0.00,,,0.00,LWC V2.00 B2112,2013-07-25 20:09:00,
2013-07-25 16:14:00,77.7,68.7,29.89,West,271,0.0,0.0,74,0.00,,,0.00,LWC V2.00 B2112,2013-07-25 20:14:00,
2013-07-25 16:19:00,78.1,69.1,29.89,WNW,303,0.0,0.0,74,0.00,,,0.00,LWC V2.00 B2112,2013-07-25 20:19:00,
2013-07-25 16:24:00,78.3,69.3,29.89,WNW,303,0.0,1.0,74,0.00,,,0.00,LWC V2.00 B2112,2013-07-25 20:24:00,
2013-07-25 16:29:00,78.3,69.7,29.89,WNW,303,0.0,0.0,75,0.00,,,0.00,LWC V2.00 B2112,2013-07-25 20:29:00,
2013-07-25 16:34:00,78.1,69.1,29.89,WNW,303,0.0,0.0,74,0.00,,,0.00,LWC V2.00 B2112,2013-07-25 20:34:00,
2013-07-25 16:39:00,77.7,69.1,29.89,WNW,303,0.0,0.0,75,0.00,,,0.00,LWC V2.00 B2112,2013-07-25 20:39:00,
2013-07-25 16:44:00,77.6,69.4,29.89,WNW,303,0.0,0.0,76,0.00,,,0.00,LWC V2.00 B2112,2013-07-25 20:44:00,
2013-07-25 16:49:00,77.2,69.8,29.89,WNW,303,0.0,0.0,78,0.00,,,0.00,LWC V2.00 B2112,2013-07-25 20:49:00,
2013-07-25 16:54:00,77.2,69.4,29.89,WNW,303,0.0,0.0,77,0.00,,,0.00,LWC V2.00 B2112,2013-07-25 20:54:00,
2013-07-25 16:59:00,77.2,70.5,29.90,WNW,303,0.0,0.0,80,0.00,,,0.00,LWC V2.00 B2112,2013-07-25 20:59:00,
2013-07-25 17:04:00,77.4,69.2,29.90,NE,37,0.0,2.0,76,0.00,,,0.00,LWC V2.00 B2112,2013-07-25 21:04:00,
2013-07-25 17:09:00,77.6,70.9,29.90,NE,37,0.0,0.0,80,0.00,,,0.00,LWC V2.00 B2112,2013-07-25 21:09:00,
2013-07-25 17:14:00,77.6,69.8,29.91,East,80,0.0,1.0,77,0.00,,,0.00,LWC V2.00 B2112,2013-07-25 21:14:00,
2013-07-25 17:19:00,77.7,69.5,29.91,East,79,0.0,0.0,76,0.00,,,0.00,LWC V2.00 B2112,2013-07-25 21:19:00,
2013-07-25 17:24:00,77.9,68.5,29.91,ENE,57,0.0,3.0,73,0.00,,,0.00,LWC V2.00 B2112,2013-07-25 21:24:00,
2013-07-25 17:29:00,78.3,69.3,29.91,NE,39,0.0,0.0,74,0.00,,,0.00,LWC V2.00 B2112,2013-07-25 21:29:00,
2013-07-25 17:34:00,78.3,70.1,29.91,NE,39,0.0,1.0,76,0.00,,,0.00,LWC V2.00 B2112,2013-07-25 21:34:00,
2013-07-25 17:39:00,78.3,69.7,29.91,NE,39,0.0,0.0,75,0.00,,,0.00,LWC V2.00 B2112,2013-07-25 21:39:00,
2013-07-25 17:44:00,78.1,68.3,29.91,ENE,61,0.0,2.0,72,0.00,,,0.00,LWC V2.00 B2112,2013-07-25 21:44:00,
2013-07-25 17:49:00,78.1,68.3,29.91,ENE,58,0.0,0.0,72,0.00,,,0.00,LWC V2.00 B2112,2013-07-25 21:49:00,
2013-07-25 17:54:00,78.1,68.7,29.91,NE,47,0.0,1.0,73,0.00,,,0.00,LWC V2.00 B2112,2013-07-25 21:54:00,
2013-07-25 17:59:00,78.1,68.3,29.90,NNE,26,0.0,1.0,72,0.00,,,0.00,LWC V2.00 B2112,2013-07-25 21:59:00,
2013-07-25 18:04:00,77.9,69.3,29.90,NNE,26,0.0,0.0,75,0.00,,,0.00,LWC V2.00 B2112,2013-07-25 22:04:00,
2013-07-25 18:09:00,77.7,68.7,29.90,NNE,26,0.0,0.0,74,0.00,,,0.00,LWC V2.00 B2112,2013-07-25 22:09:00,
2013-07-25 18:14:00,77.6,69.8,29.90,NNE,26,0.0,0.0,77,0.00,,,0.00,LWC V2.00 B2112,2013-07-25 22:14:00,
2013-07-25 18:19:00,77.4,69.2,29.90,NNE,26,0.0,0.0,76,0.00,,,0.00,LWC V2.00 B2112,2013-07-25 22:19:00,
2013-07-25 18:24:00,77.2,68.3,29.90,NNW,344,0.0,0.0,74,0.00,,,0.00,LWC V2.00 B2112,2013-07-25 22:24:00,
2013-07-25 18:29:00,77.0,68.8,29.90,NNW,344,0.0,0.0,76,0.00,,,0.00,LWC V2.00 B2112,2013-07-25 22:29:00,
2013-07-25 18:34:00,76.8,68.3,29.90,NW,313,0.0,3.0,75,0.00,,,0.00,LWC V2.00 B2112,2013-07-25 22:34:00,
2013-07-25 18:39:00,76.8,67.9,29.90,NW,313,0.0,0.0,74,0.00,,,0.00,LWC V2.00 B2112,2013-07-25 22:39:00,
2013-07-25 18:44:00,76.8,68.3,29.90,NW,313,0.0,0.0,75,0.00,,,0.00,LWC V2.00 B2112,2013-07-25 22:44:00,
2013-07-25 18:49:00,76.7,68.5,29.90,West,269,0.0,0.0,76,0.00,,,0.00,LWC V2.00 B2112,2013-07-25 22:49:00,
2013-07-25 18:54:00,76.5,68.4,29.90,West,269,0.0,0.0,76,0.00,,,0.00,LWC V2.00 B2112,2013-07-25 22:54:00,
2013-07-25 18:59:00,76.5,68.7,29.91,West,269,0.0,0.0,77,0.00,,,0.00,LWC V2.00 B2112,2013-07-25 22:59:00,
2013-07-25 19:04:00,76.1,68.0,29.91,West,269,0.0,0.0,76,0.00,,,0.00,LWC V2.00 B2112,2013-07-25 23:04:00,
2013-07-25 19:09:00,76.0,68.6,29.91,West,269,0.0,0.0,78,0.00,,,0.00,LWC V2.00 B2112,2013-07-25 23:09:00,
2013-07-25 19:14:00,75.8,68.8,29.91,West,269,0.0,0.0,79,0.00,,,0.00,LWC V2.00 B2112,2013-07-25 23:14:00,
2013-07-25 19:19:00,75.6,69.0,29.91,West,269,0.0,0.0,80,0.00,,,0.00,LWC V2.00 B2112,2013-07-25 23:19:00,
2013-07-25 19:24:00,75.4,69.1,29.91,West,269,0.0,0.0,81,0.00,,,0.00,LWC V2.00 B2112,2013-07-25 23:24:00,
2013-07-25 19:29:00,75.3,69.1,29.91,West,269,0.0,0.0,81,0.00,,,0.00,LWC V2.00 B2112,2013-07-25 23:29:00,
2013-07-25 19:34:00,75.1,69.2,29.91,West,269,0.0,0.0,82,0.00,,,0.00,LWC V2.00 B2112,2013-07-25 23:34:00,
2013-07-25 19:39:00,74.9,69.0,29.91,West,269,0.0,0.0,82,0.00,,,0.00,LWC V2.00 B2112,2013-07-25 23:39:00,
2013-07-25 19:44:00,74.7,69.2,29.92,West,269,0.0,0.0,83,0.00,,,0.00,LWC V2.00 B2112,2013-07-25 23:44:00,
2013-07-25 19:50:00,74.6,69.1,29.92,West,269,0.0,0.0,83,0.00,,,0.00,LWC V2.00 B2112,2013-07-25 23:50:00,
2013-07-25 19:55:00,74.4,69.2,29.92,West,269,0.0,0.0,84,0.00,,,0.00,LWC V2.00 B2112,2013-07-25 23:55:00,
2013-07-25 20:00:00,74.2,69.0,29.92,West,269,0.0,0.0,84,0.00,,,0.00,LWC V2.00 B2112,2013-07-26 00:00:00,
2013-07-25 20:05:00,74.0,68.8,29.92,West,269,0.0,0.0,84,0.00,,,0.00,LWC V2.00 B2112,2013-07-26 00:05:00,
2013-07-25 20:10:00,73.7,68.6,29.92,West,269,0.0,0.0,84,0.00,,,0.00,LWC V2.00 B2112,2013-07-26 00:10:00,
2013-07-25 20:15:00,73.7,68.9,29.93,West,269,0.0,0.0,85,0.00,,,0.00,LWC V2.00 B2112,2013-07-26 00:15:00,
2013-07-25 20:20:00,73.5,68.7,29.93,West,269,0.0,0.0,85,0.00,,,0.00,LWC V2.00 B2112,2013-07-26 00:20:00,
2013-07-25 20:25:00,73.3,68.5,29.93,West,269,0.0,0.0,85,0.00,,,0.00,LWC V2.00 B2112,2013-07-26 00:25:00,
2013-07-25 20:30:00,73.2,68.8,29.93,West,269,0.0,0.0,86,0.00,,,0.00,LWC V2.00 B2112,2013-07-26 00:30:00,
2013-07-25 20:35:00,73.0,68.6,29.93,West,269,0.0,0.0,86,0.00,,,0.00,LWC V2.00 B2112,2013-07-26 00:35:00,
2013-07-25 20:40:00,72.8,68.7,29.93,West,269,0.0,0.0,87,0.00,,,0.00,LWC V2.00 B2112,2013-07-26 00:40:00,
2013-07-25 20:45:00,72.7,68.6,29.94,West,269,0.0,0.0,87,0.00,,,0.00,LWC V2.00 B2112,2013-07-26 00:45:00,
2013-07-25 20:50:00,72.7,68.6,29.94,West,269,0.0,0.0,87,0.00,,,0.00,LWC V2.00 B2112,2013-07-26 00:50:00,
2013-07-25 20:55:00,72.3,68.5,29.94,West,269,0.0,0.0,88,0.00,,,0.00,LWC V2.00 B2112,2013-07-26 00:55:00,
2013-07-25 21:00:00,72.1,68.3,29.94,West,269,0.0,0.0,88,0.00,,,0.00,LWC V2.00 B2112,2013-07-26 01:00:00,
2013-07-25 21:05:00,72.0,68.6,29.94,West,269,0.0,0.0,89,0.00,,,0.00,LWC V2.00 B2112,2013-07-26 01:05:00,
2013-07-25 21:10:00,71.8,68.4,29.94,West,269,0.0,0.0,89,0.00,,,0.00,LWC V2.00 B2112,2013-07-26 01:10:00,
2013-07-25 21:15:00,71.5,68.1,29.94,West,269,0.0,0.0,89,0.00,,,0.00,LWC V2.00 B2112,2013-07-26 01:15:00,
2013-07-25 21:20:00,71.3,68.2,29.94,West,269,0.0,0.0,90,0.00,,,0.00,LWC V2.00 B2112,2013-07-26 01:20:00,
2013-07-25 21:25:00,71.1,68.3,29.94,West,269,0.0,0.0,91,0.00,,,0.00,LWC V2.00 B2112,2013-07-26 01:25:00,
2013-07-25 21:30:00,71.1,68.3,29.94,West,269,0.0,0.0,91,0.00,,,0.00,LWC V2.00 B2112,2013-07-26 01:30:00,
2013-07-25 21:35:00,70.9,68.1,29.94,West,269,0.0,0.0,91,0.00,,,0.00,LWC V2.00 B2112,2013-07-26 01:35:00,
2013-07-25 21:40:00,70.9,68.1,29.94,West,269,0.0,0.0,91,0.00,,,0.00,LWC V2.00 B2112,2013-07-26 01:40:00,
2013-07-25 21:45:00,70.9,68.1,29.95,West,269,0.0,0.0,91,0.00,,,0.00,LWC V2.00 B2112,2013-07-26 01:45:00,
2013-07-25 21:50:00,70.8,68.0,29.95,West,269,0.0,0.0,91,0.00,,,0.00,LWC V2.00 B2112,2013-07-26 01:50:00,
2013-07-25 21:55:00,70.6,67.8,29.95,West,269,0.0,0.0,91,0.00,,,0.00,LWC V2.00 B2112,2013-07-26 01:55:00,
2013-07-25 22:00:00,70.4,67.6,29.96,West,269,0.0,0.0,91,0.00,,,0.00,LWC V2.00 B2112,2013-07-26 02:00:00,
2013-07-25 22:05:00,70.3,67.5,29.96,West,269,0.0,0.0,91,0.00,,,0.00,LWC V2.00 B2112,2013-07-26 02:05:00,
2013-07-25 22:10:00,70.3,67.5,29.96,West,269,0.0,0.0,91,0.00,,,0.00,LWC V2.00 B2112,2013-07-26 02:10:00,
2013-07-25 22:15:00,70.1,67.3,29.97,West,269,0.0,0.0,91,0.00,,,0.00,LWC V2.00 B2112,2013-07-26 02:15:00,
2013-07-25 22:20:00,69.9,67.1,29.97,West,269,0.0,0.0,91,0.00,,,0.00,LWC V2.00 B2112,2013-07-26 02:20:00,
2013-07-25 22:25:00,69.8,67.0,29.97,West,269,0.0,0.0,91,0.00,,,0.00,LWC V2.00 B2112,2013-07-26 02:25:00,
2013-07-25 22:30:00,69.6,66.8,29.97,West,269,0.0,0.0,91,0.00,,,0.00,LWC V2.00 B2112,2013-07-26 02:30:00,
2013-07-25 22:35:00,69.6,66.8,29.97,West,269,0.0,0.0,91,0.00,,,0.00,LWC V2.00 B2112,2013-07-26 02:35:00,
2013-07-25 22:40:00,69.4,66.7,29.97,West,269,0.0,0.0,91,0.00,,,0.00,LWC V2.00 B2112,2013-07-26 02:40:00,
2013-07-25 22:45:00,69.3,66.6,29.97,West,269,0.0,0.0,91,0.00,,,0.00,LWC V2.00 B2112,2013-07-26 02:45:00,
2013-07-25 22:50:00,69.1,66.7,29.97,West,269,0.0,0.0,92,0.00,,,0.00,LWC V2.00 B2112,2013-07-26 02:50:00,
2013-07-25 22:55:00,68.9,66.5,29.97,West,269,0.0,0.0,92,0.00,,,0.00,LWC V2.00 B2112,2013-07-26 02:55:00,
2013-07-25 23:00:00,68.8,66.4,29.98,West,269,0.0,0.0,92,0.00,,,0.00,LWC V2.00 B2112,2013-07-26 03:00:00,
2013-07-25 23:05:00,68.8,66.4,29.98,West,269,0.0,0.0,92,0.00,,,0.00,LWC V2.00 B2112,2013-07-26 03:05:00,
2013-07-25 23:10:00,68.6,66.2,29.98,West,269,0.0,0.0,92,0.00,,,0.00,LWC V2.00 B2112,2013-07-26 03:10:00,
2013-07-25 23:15:00,68.4,66.0,29.99,West,269,0.0,0.0,92,0.00,,,0.00,LWC V2.00 B2112,2013-07-26 03:15:00,
2013-07-25 23:20:00,68.4,66.0,29.99,West,269,0.0,0.0,92,0.00,,,0.00,LWC V2.00 B2112,2013-07-26 03:20:00,
2013-07-25 23:25:00,68.3,65.9,29.99,West,269,0.0,0.0,92,0.00,,,0.00,LWC V2.00 B2112,2013-07-26 03:25:00,
2013-07-25 23:30:00,68.1,65.7,29.99,West,269,0.0,0.0,92,0.00,,,0.00,LWC V2.00 B2112,2013-07-26 03:30:00,
2013-07-25 23:35:00,67.9,65.5,29.99,West,269,0.0,0.0,92,0.00,,,0.00,LWC V2.00 B2112,2013-07-26 03:35:00,
2013-07-25 23:40:00,67.8,65.4,29.99,West,269,0.0,0.0,92,0.00,,,0.00,LWC V2.00 B2112,2013-07-26 03:40:00,
2013-07-25 23:45:00,67.8,65.4,29.99,West,269,0.0,0.0,92,0.00,,,0.00,LWC V2.00 B2112,2013-07-26 03:45:00,
2013-07-25 23:50:00,67.6,65.2,29.99,West,269,0.0,0.0,92,0.00,,,0.00,LWC V2.00 B2112,2013-07-26 03:50:00,
2013-07-25 23:55:00,67.4,65.0,29.99,West,269,0.0,0.0,92,0.00,,,0.00,LWC V2.00 B2112,2013-07-26 03:55:00,